Pays
Station

 

Conditions  météo  pour  Monbaca Benguela  -  Angola    Angola

  
21 °C
    
 
 

METAR pour Monbaca Benguela :

FNBG 161700Z 23004KT 9999 FEW015 OVC020 21/19 Q1015

 

Voici le bulletin pour Monbaca Benguela - Angola.
 
Le bulletin a été fait il y a 3 heures et 4 minutes, à 17:00 UTC .
Le vent soufflait à la vitesse de 2.1 mètres par seconde de Sud-ouest (230°).
 
La température était de 21 °C, avec un point de rosée à 19 °C.
La pression atmosphérique était de 1015 hPa.
L'humidité relative était de 88.4%.
 
Il y avait 1 à 2/8ème de nébulosité à une hauteur de 457 mètres. Le ciel était nuageux à partir d'une hauteur de 610 mètres
 
La visibilité globale était de supérieure à 10 kilomètres.
 

 
 
 

Pays :   A   B   C   D   E   F   G   H   I   J   K   L   M   N   O   P   Q   R   S   T   U   V   W   Y   Z

 

Partenaires :  Info Météo avec Met'info
Météo Marine avec MeteoMarine.net
Infos Site  |  Infos Légales  |  Crédits  |  Confidentialité
Contactez-nous  |  Ajouter aux favoris
© 2013-2018 METAR - Tous droits réservés